sensor_id;sensor_type;location;lat;lon;timestamp;temperature;humidity
5743;DHT22;2896;53.500;10.020;2023-09-19T00:01:43;16.90;43.10
5743;DHT22;2896;53.500;10.020;2023-09-19T00:04:12;17.00;71.90
5743;DHT22;2896;53.500;10.020;2023-09-19T00:06:40;16.90;88.10
5743;DHT22;2896;53.500;10.020;2023-09-19T00:09:06;17.00;95.30
5743;DHT22;2896;53.500;10.020;2023-09-19T00:11:36;17.00;94.70
5743;DHT22;2896;53.500;10.020;2023-09-19T00:14:03;17.00;99.50
5743;DHT22;2896;53.500;10.020;2023-09-19T00:16:30;17.10;97.80
5743;DHT22;2896;53.500;10.020;2023-09-19T00:18:58;17.10;22.20
5743;DHT22;2896;53.500;10.020;2023-09-19T00:21:26;17.10;24.20
5743;DHT22;2896;53.500;10.020;2023-09-19T00:23:53;17.10;1.00
5743;DHT22;2896;53.500;10.020;2023-09-19T00:26:20;17.10;18.30
5743;DHT22;2896;53.500;10.020;2023-09-19T00:28:47;17.10;11.20
5743;DHT22;2896;53.500;10.020;2023-09-19T00:31:14;17.10;1.00
5743;DHT22;2896;53.500;10.020;2023-09-19T00:33:40;17.10;1.00
5743;DHT22;2896;53.500;10.020;2023-09-19T00:36:08;17.10;1.00
5743;DHT22;2896;53.500;10.020;2023-09-19T00:38:36;17.00;26.50
5743;DHT22;2896;53.500;10.020;2023-09-19T00:41:02;17.00;32.10
5743;DHT22;2896;53.500;10.020;2023-09-19T00:43:29;16.90;29.00
5743;DHT22;2896;53.500;10.020;2023-09-19T00:45:59;16.90;70.60
5743;DHT22;2896;53.500;10.020;2023-09-19T00:48:28;16.90;99.90
5743;DHT22;2896;53.500;10.020;2023-09-19T00:50:57;16.90;99.90
5743;DHT22;2896;53.500;10.020;2023-09-19T00:53:25;16.80;99.90
5743;DHT22;2896;53.500;10.020;2023-09-19T00:55:54;16.80;99.90
5743;DHT22;2896;53.500;10.020;2023-09-19T00:58:21;16.90;99.90
5743;DHT22;2896;53.500;10.020;2023-09-19T01:00:48;16.80;99.90
5743;DHT22;2896;53.500;10.020;2023-09-19T01:03:15;16.80;99.90
5743;DHT22;2896;53.500;10.020;2023-09-19T01:05:43;16.80;99.90
5743;DHT22;2896;53.500;10.020;2023-09-19T01:08:10;16.70;99.90
5743;DHT22;2896;53.500;10.020;2023-09-19T01:10:43;16.80;99.90
5743;DHT22;2896;53.500;10.020;2023-09-19T01:13:26;16.70;99.90
5743;DHT22;2896;53.500;10.020;2023-09-19T01:16:06;16.70;99.90
5743;DHT22;2896;53.500;10.020;2023-09-19T01:18:43;16.70;99.90
5743;DHT22;2896;53.500;10.020;2023-09-19T01:21:17;16.70;99.90
5743;DHT22;2896;53.500;10.020;2023-09-19T01:24:21;16.80;99.90
5743;DHT22;2896;53.500;10.020;2023-09-19T01:27:06;16.80;99.90
5743;DHT22;2896;53.500;10.020;2023-09-19T01:29:44;16.80;99.90
5743;DHT22;2896;53.500;10.020;2023-09-19T01:32:17;16.90;99.90
5743;DHT22;2896;53.500;10.020;2023-09-19T01:34:47;16.90;99.90
5743;DHT22;2896;53.500;10.020;2023-09-19T01:37:14;16.90;99.90
5743;DHT22;2896;53.500;10.020;2023-09-19T01:39:45;16.90;99.90
5743;DHT22;2896;53.500;10.020;2023-09-19T01:42:21;17.00;99.90
5743;DHT22;2896;53.500;10.020;2023-09-19T01:44:55;16.90;99.90
5743;DHT22;2896;53.500;10.020;2023-09-19T01:47:31;16.90;99.90
5743;DHT22;2896;53.500;10.020;2023-09-19T01:50:05;17.00;99.90
5743;DHT22;2896;53.500;10.020;2023-09-19T01:52:54;16.90;99.90
5743;DHT22;2896;53.500;10.020;2023-09-19T01:55:25;16.90;99.90
5743;DHT22;2896;53.500;10.020;2023-09-19T01:58:01;16.80;99.90
5743;DHT22;2896;53.500;10.020;2023-09-19T02:00:32;16.80;99.90
5743;DHT22;2896;53.500;10.020;2023-09-19T02:03:00;16.80;99.90
5743;DHT22;2896;53.500;10.020;2023-09-19T02:05:28;16.80;99.90
5743;DHT22;2896;53.500;10.020;2023-09-19T02:07:55;16.80;99.90
5743;DHT22;2896;53.500;10.020;2023-09-19T02:10:24;16.90;99.90
5743;DHT22;2896;53.500;10.020;2023-09-19T02:12:50;16.90;99.90
5743;DHT22;2896;53.500;10.020;2023-09-19T02:15:18;17.80;99.90
5743;DHT22;2896;53.500;10.020;2023-09-19T02:17:44;16.80;99.90
5743;DHT22;2896;53.500;10.020;2023-09-19T02:20:13;16.80;99.90
5743;DHT22;2896;53.500;10.020;2023-09-19T02:22:40;16.70;99.90
5743;DHT22;2896;53.500;10.020;2023-09-19T02:25:07;16.70;92.90
5743;DHT22;2896;53.500;10.020;2023-09-19T02:27:34;16.60;64.50
5743;DHT22;2896;53.500;10.020;2023-09-19T02:30:01;16.60;97.70
5743;DHT22;2896;53.500;10.020;2023-09-19T02:32:29;16.60;94.20
5743;DHT22;2896;53.500;10.020;2023-09-19T02:34:56;16.50;99.90
5743;DHT22;2896;53.500;10.020;2023-09-19T02:37:24;16.50;99.90
5743;DHT22;2896;53.500;10.020;2023-09-19T02:39:51;16.50;99.40
5743;DHT22;2896;53.500;10.020;2023-09-19T02:42:18;16.50;99.90
5743;DHT22;2896;53.500;10.020;2023-09-19T02:44:44;16.50;99.90
5743;DHT22;2896;53.500;10.020;2023-09-19T02:47:12;16.40;99.90
5743;DHT22;2896;53.500;10.020;2023-09-19T02:49:40;16.40;99.90
5743;DHT22;2896;53.500;10.020;2023-09-19T02:52:07;16.40;99.90
5743;DHT22;2896;53.500;10.020;2023-09-19T02:54:37;16.40;99.90
5743;DHT22;2896;53.500;10.020;2023-09-19T02:57:04;16.40;57.50
5743;DHT22;2896;53.500;10.020;2023-09-19T02:59:32;16.40;99.10
5743;DHT22;2896;53.500;10.020;2023-09-19T03:02:02;16.30;99.90
5743;DHT22;2896;53.500;10.020;2023-09-19T03:04:30;16.30;99.90
5743;DHT22;2896;53.500;10.020;2023-09-19T03:06:56;16.30;99.90
5743;DHT22;2896;53.500;10.020;2023-09-19T03:09:25;16.30;99.90
5743;DHT22;2896;53.500;10.020;2023-09-19T03:11:54;16.30;99.90
5743;DHT22;2896;53.500;10.020;2023-09-19T03:14:20;16.30;95.40
5743;DHT22;2896;53.500;10.020;2023-09-19T03:16:49;16.30;94.50
5743;DHT22;2896;53.500;10.020;2023-09-19T03:19:16;16.30;76.30
5743;DHT22;2896;53.500;10.020;2023-09-19T03:21:42;16.30;58.50
5743;DHT22;2896;53.500;10.020;2023-09-19T03:24:09;16.30;76.30
5743;DHT22;2896;53.500;10.020;2023-09-19T03:26:36;16.30;53.50
5743;DHT22;2896;53.500;10.020;2023-09-19T03:29:05;18.10;1.00
5743;DHT22;2896;53.500;10.020;2023-09-19T03:31:33;16.30;1.00
5743;DHT22;2896;53.500;10.020;2023-09-19T03:34:02;16.30;1.00
5743;DHT22;2896;53.500;10.020;2023-09-19T03:36:29;16.20;1.00
5743;DHT22;2896;53.500;10.020;2023-09-19T03:38:56;16.20;1.00
5743;DHT22;2896;53.500;10.020;2023-09-19T03:41:22;16.30;1.00
5743;DHT22;2896;53.500;10.020;2023-09-19T03:43:49;16.20;1.00
5743;DHT22;2896;53.500;10.020;2023-09-19T03:46:17;16.20;1.00
5743;DHT22;2896;53.500;10.020;2023-09-19T03:48:43;16.20;1.00
5743;DHT22;2896;53.500;10.020;2023-09-19T03:51:10;16.10;1.00
5743;DHT22;2896;53.500;10.020;2023-09-19T03:53:37;16.10;1.00
5743;DHT22;2896;53.500;10.020;2023-09-19T03:56:03;16.10;1.00
5743;DHT22;2896;53.500;10.020;2023-09-19T03:58:30;16.10;99.90
5743;DHT22;2896;53.500;10.020;2023-09-19T04:00:57;16.00;99.90
5743;DHT22;2896;53.500;10.020;2023-09-19T04:03:25;15.90;99.90
5743;DHT22;2896;53.500;10.020;2023-09-19T04:06:00;15.80;99.90
5743;DHT22;2896;53.500;10.020;2023-09-19T04:08:27;15.70;99.90
5743;DHT22;2896;53.500;10.020;2023-09-19T04:10:54;15.90;99.90
5743;DHT22;2896;53.500;10.020;2023-09-19T04:13:22;15.70;96.90
5743;DHT22;2896;53.500;10.020;2023-09-19T04:15:48;15.60;90.00
5743;DHT22;2896;53.500;10.020;2023-09-19T04:18:15;15.50;72.60
5743;DHT22;2896;53.500;10.020;2023-09-19T04:20:48;15.40;65.60
5743;DHT22;2896;53.500;10.020;2023-09-19T04:23:14;15.40;15.50
5743;DHT22;2896;53.500;10.020;2023-09-19T04:25:42;15.30;1.00
5743;DHT22;2896;53.500;10.020;2023-09-19T04:28:09;15.40;1.00
5743;DHT22;2896;53.500;10.020;2023-09-19T04:30:36;15.30;1.00
5743;DHT22;2896;53.500;10.020;2023-09-19T04:33:03;15.30;1.00
5743;DHT22;2896;53.500;10.020;2023-09-19T04:35:30;15.20;10.70
5743;DHT22;2896;53.500;10.020;2023-09-19T04:37:58;15.20;1.00
5743;DHT22;2896;53.500;10.020;2023-09-19T04:40:25;15.20;1.00
5743;DHT22;2896;53.500;10.020;2023-09-19T04:42:53;15.20;1.00
5743;DHT22;2896;53.500;10.020;2023-09-19T04:45:21;15.10;10.50
5743;DHT22;2896;53.500;10.020;2023-09-19T04:47:48;15.00;26.50
5743;DHT22;2896;53.500;10.020;2023-09-19T04:50:14;15.00;85.50
5743;DHT22;2896;53.500;10.020;2023-09-19T04:52:43;15.00;75.40
5743;DHT22;2896;53.500;10.020;2023-09-19T04:55:12;14.90;52.50
5743;DHT22;2896;53.500;10.020;2023-09-19T04:57:42;14.90;90.70
5743;DHT22;2896;53.500;10.020;2023-09-19T05:00:11;14.80;99.90
5743;DHT22;2896;53.500;10.020;2023-09-19T05:02:40;14.80;99.90
5743;DHT22;2896;53.500;10.020;2023-09-19T05:05:07;14.80;99.90
5743;DHT22;2896;53.500;10.020;2023-09-19T05:07:35;14.90;92.20
5743;DHT22;2896;53.500;10.020;2023-09-19T05:10:02;14.90;84.30
5743;DHT22;2896;53.500;10.020;2023-09-19T05:12:33;14.90;88.00
5743;DHT22;2896;53.500;10.020;2023-09-19T05:15:00;14.80;98.00
5743;DHT22;2896;53.500;10.020;2023-09-19T05:17:28;14.80;99.90
5743;DHT22;2896;53.500;10.020;2023-09-19T05:19:54;14.90;99.90
5743;DHT22;2896;53.500;10.020;2023-09-19T05:22:21;14.80;99.90
5743;DHT22;2896;53.500;10.020;2023-09-19T05:24:49;14.90;99.90
5743;DHT22;2896;53.500;10.020;2023-09-19T05:27:16;14.80;99.90
5743;DHT22;2896;53.500;10.020;2023-09-19T05:29:44;14.80;99.90
5743;DHT22;2896;53.500;10.020;2023-09-19T05:32:11;14.70;99.90
5743;DHT22;2896;53.500;10.020;2023-09-19T05:34:38;14.70;99.90
5743;DHT22;2896;53.500;10.020;2023-09-19T05:37:05;14.70;99.90
5743;DHT22;2896;53.500;10.020;2023-09-19T05:39:32;14.60;99.90
5743;DHT22;2896;53.500;10.020;2023-09-19T05:41:59;14.70;99.90
5743;DHT22;2896;53.500;10.020;2023-09-19T05:44:26;14.70;99.90
5743;DHT22;2896;53.500;10.020;2023-09-19T05:46:55;14.60;99.90
5743;DHT22;2896;53.500;10.020;2023-09-19T05:49:23;14.60;99.90
5743;DHT22;2896;53.500;10.020;2023-09-19T05:51:50;14.60;99.90
5743;DHT22;2896;53.500;10.020;2023-09-19T05:54:19;14.60;99.90
5743;DHT22;2896;53.500;10.020;2023-09-19T05:56:46;14.70;99.90
5743;DHT22;2896;53.500;10.020;2023-09-19T05:59:18;14.70;99.90
5743;DHT22;2896;53.500;10.020;2023-09-19T06:01:45;14.80;99.90
5743;DHT22;2896;53.500;10.020;2023-09-19T06:04:13;14.80;99.90
5743;DHT22;2896;53.500;10.020;2023-09-19T06:06:40;15.00;99.90
5743;DHT22;2896;53.500;10.020;2023-09-19T06:09:07;15.00;99.90
5743;DHT22;2896;53.500;10.020;2023-09-19T06:11:33;15.10;99.90
5743;DHT22;2896;53.500;10.020;2023-09-19T06:14:00;15.30;99.90
5743;DHT22;2896;53.500;10.020;2023-09-19T06:16:28;15.30;99.90
5743;DHT22;2896;53.500;10.020;2023-09-19T06:18:55;15.50;99.90
5743;DHT22;2896;53.500;10.020;2023-09-19T06:21:23;15.60;82.90
5743;DHT22;2896;53.500;10.020;2023-09-19T06:23:52;15.70;14.20
5743;DHT22;2896;53.500;10.020;2023-09-19T06:26:19;15.80;1.00
5743;DHT22;2896;53.500;10.020;2023-09-19T06:28:45;15.80;1.00
5743;DHT22;2896;53.500;10.020;2023-09-19T06:31:12;15.90;1.00
5743;DHT22;2896;53.500;10.020;2023-09-19T06:33:39;16.00;1.00
5743;DHT22;2896;53.500;10.020;2023-09-19T06:36:06;16.00;1.00
5743;DHT22;2896;53.500;10.020;2023-09-19T06:38:34;15.80;1.00
5743;DHT22;2896;53.500;10.020;2023-09-19T06:41:02;16.00;1.00
5743;DHT22;2896;53.500;10.020;2023-09-19T06:43:30;16.10;1.00
5743;DHT22;2896;53.500;10.020;2023-09-19T06:45:58;16.10;1.00
5743;DHT22;2896;53.500;10.020;2023-09-19T06:48:25;16.20;1.00
5743;DHT22;2896;53.500;10.020;2023-09-19T06:50:53;16.20;1.00
5743;DHT22;2896;53.500;10.020;2023-09-19T06:53:20;16.30;1.00
5743;DHT22;2896;53.500;10.020;2023-09-19T06:55:50;16.40;1.00
5743;DHT22;2896;53.500;10.020;2023-09-19T06:58:17;16.40;1.00
5743;DHT22;2896;53.500;10.020;2023-09-19T07:00:44;16.40;1.00
5743;DHT22;2896;53.500;10.020;2023-09-19T07:03:13;16.40;1.00
5743;DHT22;2896;53.500;10.020;2023-09-19T07:05:41;16.40;1.00
5743;DHT22;2896;53.500;10.020;2023-09-19T07:08:09;16.50;1.00
5743;DHT22;2896;53.500;10.020;2023-09-19T07:10:38;16.50;1.00
5743;DHT22;2896;53.500;10.020;2023-09-19T07:13:07;16.50;1.00
5743;DHT22;2896;53.500;10.020;2023-09-19T07:15:37;16.60;1.00
5743;DHT22;2896;53.500;10.020;2023-09-19T07:18:05;16.60;1.00
5743;DHT22;2896;53.500;10.020;2023-09-19T07:20:32;16.70;1.00
5743;DHT22;2896;53.500;10.020;2023-09-19T07:23:00;16.70;1.00
5743;DHT22;2896;53.500;10.020;2023-09-19T07:25:27;16.80;1.00
5743;DHT22;2896;53.500;10.020;2023-09-19T07:27:55;16.80;1.00
5743;DHT22;2896;53.500;10.020;2023-09-19T07:30:23;16.90;1.00
5743;DHT22;2896;53.500;10.020;2023-09-19T07:32:50;15.20;1.00
5743;DHT22;2896;53.500;10.020;2023-09-19T07:35:18;17.00;1.00
5743;DHT22;2896;53.500;10.020;2023-09-19T07:37:45;17.10;1.00
5743;DHT22;2896;53.500;10.020;2023-09-19T07:40:14;17.20;1.00
5743;DHT22;2896;53.500;10.020;2023-09-19T07:42:41;17.20;1.00
5743;DHT22;2896;53.500;10.020;2023-09-19T07:45:10;17.20;1.00
5743;DHT22;2896;53.500;10.020;2023-09-19T07:47:44;17.10;1.00
5743;DHT22;2896;53.500;10.020;2023-09-19T07:50:10;17.10;1.00
5743;DHT22;2896;53.500;10.020;2023-09-19T07:52:37;17.10;1.00
5743;DHT22;2896;53.500;10.020;2023-09-19T07:55:05;17.10;1.00
5743;DHT22;2896;53.500;10.020;2023-09-19T07:57:34;17.10;1.00
5743;DHT22;2896;53.500;10.020;2023-09-19T08:00:01;17.10;1.00
5743;DHT22;2896;53.500;10.020;2023-09-19T08:02:30;17.00;1.00
5743;DHT22;2896;53.500;10.020;2023-09-19T08:04:58;16.90;1.00
5743;DHT22;2896;53.500;10.020;2023-09-19T08:07:25;16.80;1.00
5743;DHT22;2896;53.500;10.020;2023-09-19T08:09:54;16.80;1.00
5743;DHT22;2896;53.500;10.020;2023-09-19T08:12:20;16.80;1.00
5743;DHT22;2896;53.500;10.020;2023-09-19T08:14:49;16.90;1.00
5743;DHT22;2896;53.500;10.020;2023-09-19T08:17:16;16.90;1.00
5743;DHT22;2896;53.500;10.020;2023-09-19T08:19:45;16.90;1.00
5743;DHT22;2896;53.500;10.020;2023-09-19T08:22:13;17.00;1.00
5743;DHT22;2896;53.500;10.020;2023-09-19T08:24:42;17.10;1.00
5743;DHT22;2896;53.500;10.020;2023-09-19T08:27:09;17.20;1.00
5743;DHT22;2896;53.500;10.020;2023-09-19T08:29:38;17.20;1.00
5743;DHT22;2896;53.500;10.020;2023-09-19T08:32:04;17.30;1.00
5743;DHT22;2896;53.500;10.020;2023-09-19T08:34:31;17.40;1.00
5743;DHT22;2896;53.500;10.020;2023-09-19T08:36:59;17.50;1.00
5743;DHT22;2896;53.500;10.020;2023-09-19T08:39:27;17.40;1.00
5743;DHT22;2896;53.500;10.020;2023-09-19T08:41:57;17.50;1.00
5743;DHT22;2896;53.500;10.020;2023-09-19T08:44:24;17.60;1.00
5743;DHT22;2896;53.500;10.020;2023-09-19T08:46:54;17.60;1.00
5743;DHT22;2896;53.500;10.020;2023-09-19T08:49:27;17.70;1.00
5743;DHT22;2896;53.500;10.020;2023-09-19T08:52:04;17.60;1.00
5743;DHT22;2896;53.500;10.020;2023-09-19T08:54:37;17.60;1.00
5743;DHT22;2896;53.500;10.020;2023-09-19T08:57:07;17.70;1.00
5743;DHT22;2896;53.500;10.020;2023-09-19T08:59:37;17.80;1.00
5743;DHT22;2896;53.500;10.020;2023-09-19T09:02:11;17.80;1.00
5743;DHT22;2896;53.500;10.020;2023-09-19T09:04:39;17.90;99.90
5743;DHT22;2896;53.500;10.020;2023-09-19T09:07:10;17.90;99.90
5743;DHT22;2896;53.500;10.020;2023-09-19T09:09:39;18.00;99.90
5743;DHT22;2896;53.500;10.020;2023-09-19T09:12:09;18.00;99.90
5743;DHT22;2896;53.500;10.020;2023-09-19T09:14:37;17.90;99.90
5743;DHT22;2896;53.500;10.020;2023-09-19T09:17:04;18.00;99.90
5743;DHT22;2896;53.500;10.020;2023-09-19T09:19:31;18.10;99.90
5743;DHT22;2896;53.500;10.020;2023-09-19T09:22:06;18.00;99.90
5743;DHT22;2896;53.500;10.020;2023-09-19T09:24:33;18.30;99.90
5743;DHT22;2896;53.500;10.020;2023-09-19T09:27:03;18.30;99.90
5743;DHT22;2896;53.500;10.020;2023-09-19T09:29:43;18.50;99.90
5743;DHT22;2896;53.500;10.020;2023-09-19T09:32:18;18.60;99.90
5743;DHT22;2896;53.500;10.020;2023-09-19T09:34:45;18.70;99.90
5743;DHT22;2896;53.500;10.020;2023-09-19T09:37:13;18.80;99.90
5743;DHT22;2896;53.500;10.020;2023-09-19T09:39:49;18.80;99.90
5743;DHT22;2896;53.500;10.020;2023-09-19T09:42:31;18.80;99.90
5743;DHT22;2896;53.500;10.020;2023-09-19T09:45:15;19.00;99.90
5743;DHT22;2896;53.500;10.020;2023-09-19T09:47:44;19.20;99.90
5743;DHT22;2896;53.500;10.020;2023-09-19T09:50:28;19.40;99.90
5743;DHT22;2896;53.500;10.020;2023-09-19T09:53:22;19.50;99.90
5743;DHT22;2896;53.500;10.020;2023-09-19T09:56:01;19.60;99.90
5743;DHT22;2896;53.500;10.020;2023-09-19T09:58:30;19.70;99.90
5743;DHT22;2896;53.500;10.020;2023-09-19T10:00:58;19.70;99.90
5743;DHT22;2896;53.500;10.020;2023-09-19T10:03:33;19.70;99.90
5743;DHT22;2896;53.500;10.020;2023-09-19T10:06:05;19.80;99.90
5743;DHT22;2896;53.500;10.020;2023-09-19T10:08:57;20.00;99.90
5743;DHT22;2896;53.500;10.020;2023-09-19T10:11:28;20.00;99.90
5743;DHT22;2896;53.500;10.020;2023-09-19T10:13:58;20.20;99.90
5743;DHT22;2896;53.500;10.020;2023-09-19T10:16:29;20.40;99.90
5743;DHT22;2896;53.500;10.020;2023-09-19T10:18:59;20.50;99.90
5743;DHT22;2896;53.500;10.020;2023-09-19T10:21:28;20.30;99.90
5743;DHT22;2896;53.500;10.020;2023-09-19T10:23:56;20.20;99.90
5743;DHT22;2896;53.500;10.020;2023-09-19T10:26:25;20.10;99.90
5743;DHT22;2896;53.500;10.020;2023-09-19T10:28:59;20.10;99.90
5743;DHT22;2896;53.500;10.020;2023-09-19T10:31:28;20.30;99.90
5743;DHT22;2896;53.500;10.020;2023-09-19T10:33:55;20.10;99.90
5743;DHT22;2896;53.500;10.020;2023-09-19T10:36:24;20.20;99.90
5743;DHT22;2896;53.500;10.020;2023-09-19T10:38:53;20.40;99.90
5743;DHT22;2896;53.500;10.020;2023-09-19T10:41:21;20.20;99.90
5743;DHT22;2896;53.500;10.020;2023-09-19T10:43:49;20.20;99.90
5743;DHT22;2896;53.500;10.020;2023-09-19T10:46:19;20.20;99.90
5743;DHT22;2896;53.500;10.020;2023-09-19T10:48:46;20.10;99.90
5743;DHT22;2896;53.500;10.020;2023-09-19T10:51:16;20.20;99.90
5743;DHT22;2896;53.500;10.020;2023-09-19T10:53:47;20.20;99.90
5743;DHT22;2896;53.500;10.020;2023-09-19T10:56:19;20.30;99.90
5743;DHT22;2896;53.500;10.020;2023-09-19T10:58:48;20.20;99.90
5743;DHT22;2896;53.500;10.020;2023-09-19T11:01:15;20.10;99.90
5743;DHT22;2896;53.500;10.020;2023-09-19T11:03:44;20.00;99.90
5743;DHT22;2896;53.500;10.020;2023-09-19T11:06:12;20.00;99.90
5743;DHT22;2896;53.500;10.020;2023-09-19T11:09:00;21.50;99.90
5743;DHT22;2896;53.500;10.020;2023-09-19T11:11:48;20.00;99.90
5743;DHT22;2896;53.500;10.020;2023-09-19T11:14:37;20.20;99.90
5743;DHT22;2896;53.500;10.020;2023-09-19T11:20:22;20.50;99.90
5743;DHT22;2896;53.500;10.020;2023-09-19T11:23:21;20.70;99.90
5743;DHT22;2896;53.500;10.020;2023-09-19T11:25:54;20.90;99.90
5743;DHT22;2896;53.500;10.020;2023-09-19T11:28:31;20.60;99.90
5743;DHT22;2896;53.500;10.020;2023-09-19T11:30:58;20.40;99.90
5743;DHT22;2896;53.500;10.020;2023-09-19T11:33:26;20.60;99.90
5743;DHT22;2896;53.500;10.020;2023-09-19T11:36:01;20.90;99.90
5743;DHT22;2896;53.500;10.020;2023-09-19T11:41:40;20.60;99.90
5743;DHT22;2896;53.500;10.020;2023-09-19T11:44:34;20.30;99.90
5743;DHT22;2896;53.500;10.020;2023-09-19T11:47:04;20.50;99.90
5743;DHT22;2896;53.500;10.020;2023-09-19T11:49:32;20.40;99.90
5743;DHT22;2896;53.500;10.020;2023-09-19T11:52:02;20.40;99.90
5743;DHT22;2896;53.500;10.020;2023-09-19T11:54:31;20.40;99.90
5743;DHT22;2896;53.500;10.020;2023-09-19T11:56:59;20.40;99.90
5743;DHT22;2896;53.500;10.020;2023-09-19T11:59:27;20.80;99.90
5743;DHT22;2896;53.500;10.020;2023-09-19T12:01:56;20.70;99.90
5743;DHT22;2896;53.500;10.020;2023-09-19T12:04:36;20.50;99.90
5743;DHT22;2896;53.500;10.020;2023-09-19T12:07:07;20.60;99.90
5743;DHT22;2896;53.500;10.020;2023-09-19T12:09:38;20.60;99.90
5743;DHT22;2896;53.500;10.020;2023-09-19T12:12:06;20.60;99.90
5743;DHT22;2896;53.500;10.020;2023-09-19T12:14:32;20.70;99.90
5743;DHT22;2896;53.500;10.020;2023-09-19T12:17:00;20.90;99.90
5743;DHT22;2896;53.500;10.020;2023-09-19T12:19:29;20.80;99.90
5743;DHT22;2896;53.500;10.020;2023-09-19T12:21:56;20.90;99.90
5743;DHT22;2896;53.500;10.020;2023-09-19T12:24:27;20.80;99.90
5743;DHT22;2896;53.500;10.020;2023-09-19T12:27:00;21.10;99.90
5743;DHT22;2896;53.500;10.020;2023-09-19T12:29:29;21.30;99.90
5743;DHT22;2896;53.500;10.020;2023-09-19T12:31:57;23.50;99.90
5743;DHT22;2896;53.500;10.020;2023-09-19T12:34:25;21.00;99.90
5743;DHT22;2896;53.500;10.020;2023-09-19T12:37:09;20.80;99.90
5743;DHT22;2896;53.500;10.020;2023-09-19T12:39:43;21.10;99.90
5743;DHT22;2896;53.500;10.020;2023-09-19T12:42:15;21.30;99.90
5743;DHT22;2896;53.500;10.020;2023-09-19T12:44:42;21.50;99.90
5743;DHT22;2896;53.500;10.020;2023-09-19T12:47:11;21.30;99.90
5743;DHT22;2896;53.500;10.020;2023-09-19T12:50:04;21.10;99.90
5743;DHT22;2896;53.500;10.020;2023-09-19T12:52:35;20.90;99.90
5743;DHT22;2896;53.500;10.020;2023-09-19T12:55:04;20.90;99.90
5743;DHT22;2896;53.500;10.020;2023-09-19T12:57:32;21.20;99.90
5743;DHT22;2896;53.500;10.020;2023-09-19T13:00:00;21.40;99.90
5743;DHT22;2896;53.500;10.020;2023-09-19T13:02:27;22.70;99.90
5743;DHT22;2896;53.500;10.020;2023-09-19T13:04:54;21.50;99.90
5743;DHT22;2896;53.500;10.020;2023-09-19T13:07:42;21.80;99.90
5743;DHT22;2896;53.500;10.020;2023-09-19T13:10:12;22.10;99.90
5743;DHT22;2896;53.500;10.020;2023-09-19T13:12:42;22.10;99.90
5743;DHT22;2896;53.500;10.020;2023-09-19T13:15:14;22.00;99.90
5743;DHT22;2896;53.500;10.020;2023-09-19T13:17:45;21.90;99.90
5743;DHT22;2896;53.500;10.020;2023-09-19T13:20:21;22.10;99.90
5743;DHT22;2896;53.500;10.020;2023-09-19T13:22:52;22.10;99.90
5743;DHT22;2896;53.500;10.020;2023-09-19T13:25:23;22.10;99.90
5743;DHT22;2896;53.500;10.020;2023-09-19T13:27:53;22.30;99.90
5743;DHT22;2896;53.500;10.020;2023-09-19T13:30:22;22.30;99.90
5743;DHT22;2896;53.500;10.020;2023-09-19T13:32:50;22.60;99.90
5743;DHT22;2896;53.500;10.020;2023-09-19T13:35:18;22.80;99.90
5743;DHT22;2896;53.500;10.020;2023-09-19T13:37:46;22.40;99.90
5743;DHT22;2896;53.500;10.020;2023-09-19T13:40:17;23.00;99.90
5743;DHT22;2896;53.500;10.020;2023-09-19T13:42:45;22.50;99.90
5743;DHT22;2896;53.500;10.020;2023-09-19T13:45:11;22.50;99.90
5743;DHT22;2896;53.500;10.020;2023-09-19T13:47:41;22.80;99.90
5743;DHT22;2896;53.500;10.020;2023-09-19T13:50:09;22.90;99.90
5743;DHT22;2896;53.500;10.020;2023-09-19T13:52:35;23.00;99.90
5743;DHT22;2896;53.500;10.020;2023-09-19T13:55:04;23.10;99.90
5743;DHT22;2896;53.500;10.020;2023-09-19T13:57:32;23.20;99.90
5743;DHT22;2896;53.500;10.020;2023-09-19T14:00:00;23.20;99.90
5743;DHT22;2896;53.500;10.020;2023-09-19T14:02:26;23.30;99.90
5743;DHT22;2896;53.500;10.020;2023-09-19T14:04:54;23.20;99.90
5743;DHT22;2896;53.500;10.020;2023-09-19T14:07:21;23.20;99.90
5743;DHT22;2896;53.500;10.020;2023-09-19T14:09:48;23.20;99.90
5743;DHT22;2896;53.500;10.020;2023-09-19T14:12:15;23.40;99.90
5743;DHT22;2896;53.500;10.020;2023-09-19T14:14:41;23.40;99.90
5743;DHT22;2896;53.500;10.020;2023-09-19T14:17:10;23.30;99.90
5743;DHT22;2896;53.500;10.020;2023-09-19T14:19:36;23.30;99.90
5743;DHT22;2896;53.500;10.020;2023-09-19T14:22:04;23.20;99.90
5743;DHT22;2896;53.500;10.020;2023-09-19T14:24:33;23.30;99.90
5743;DHT22;2896;53.500;10.020;2023-09-19T14:26:59;23.10;99.90
5743;DHT22;2896;53.500;10.020;2023-09-19T14:29:26;22.90;99.90
5743;DHT22;2896;53.500;10.020;2023-09-19T14:31:53;22.50;99.90
5743;DHT22;2896;53.500;10.020;2023-09-19T14:34:21;22.40;99.90
5743;DHT22;2896;53.500;10.020;2023-09-19T14:36:48;22.30;99.90
5743;DHT22;2896;53.500;10.020;2023-09-19T14:39:15;22.30;99.90
5743;DHT22;2896;53.500;10.020;2023-09-19T14:41:42;22.50;99.90
5743;DHT22;2896;53.500;10.020;2023-09-19T14:44:08;22.70;99.90
5743;DHT22;2896;53.500;10.020;2023-09-19T14:46:35;22.60;99.90
5743;DHT22;2896;53.500;10.020;2023-09-19T14:49:02;22.60;99.90
5743;DHT22;2896;53.500;10.020;2023-09-19T14:51:31;22.40;99.90
5743;DHT22;2896;53.500;10.020;2023-09-19T14:53:58;22.50;99.90
5743;DHT22;2896;53.500;10.020;2023-09-19T14:56:27;22.60;99.90
5743;DHT22;2896;53.500;10.020;2023-09-19T14:58:55;22.70;99.90
5743;DHT22;2896;53.500;10.020;2023-09-19T15:01:22;22.60;99.90
5743;DHT22;2896;53.500;10.020;2023-09-19T15:03:48;22.40;99.90
5743;DHT22;2896;53.500;10.020;2023-09-19T15:06:15;22.00;99.90
5743;DHT22;2896;53.500;10.020;2023-09-19T15:08:47;21.90;99.90
5743;DHT22;2896;53.500;10.020;2023-09-19T15:11:16;21.40;99.90
5743;DHT22;2896;53.500;10.020;2023-09-19T15:13:43;21.40;99.90
5743;DHT22;2896;53.500;10.020;2023-09-19T15:16:11;21.10;99.90
5743;DHT22;2896;53.500;10.020;2023-09-19T15:18:39;21.10;99.90
5743;DHT22;2896;53.500;10.020;2023-09-19T15:21:07;20.90;99.90
5743;DHT22;2896;53.500;10.020;2023-09-19T15:23:35;20.70;99.90
5743;DHT22;2896;53.500;10.020;2023-09-19T15:26:04;20.60;99.90
5743;DHT22;2896;53.500;10.020;2023-09-19T15:28:31;20.60;99.90
5743;DHT22;2896;53.500;10.020;2023-09-19T15:31:00;20.60;99.90
5743;DHT22;2896;53.500;10.020;2023-09-19T15:33:26;20.70;99.90
5743;DHT22;2896;53.500;10.020;2023-09-19T15:36:01;20.90;99.90
5743;DHT22;2896;53.500;10.020;2023-09-19T15:38:28;20.80;99.90
5743;DHT22;2896;53.500;10.020;2023-09-19T15:40:55;20.60;99.90
5743;DHT22;2896;53.500;10.020;2023-09-19T15:43:23;20.60;99.90
5743;DHT22;2896;53.500;10.020;2023-09-19T15:45:50;20.60;99.90
5743;DHT22;2896;53.500;10.020;2023-09-19T15:48:17;20.50;99.90
5743;DHT22;2896;53.500;10.020;2023-09-19T15:50:43;20.50;99.90
5743;DHT22;2896;53.500;10.020;2023-09-19T15:53:10;20.40;99.90
5743;DHT22;2896;53.500;10.020;2023-09-19T15:55:38;20.30;99.90
5743;DHT22;2896;53.500;10.020;2023-09-19T15:58:05;20.30;99.90
5743;DHT22;2896;53.500;10.020;2023-09-19T16:00:34;20.10;99.90
5743;DHT22;2896;53.500;10.020;2023-09-19T16:03:01;20.10;99.90
5743;DHT22;2896;53.500;10.020;2023-09-19T16:05:28;20.10;99.90
5743;DHT22;2896;53.500;10.020;2023-09-19T16:07:55;20.10;99.90
5743;DHT22;2896;53.500;10.020;2023-09-19T16:10:21;20.10;99.90